Tyler, TX

3:37 AM CDT on May 06, 2015 (GMT -0500)
McDonaldRd | | Change Station
CLOSE
Current Station
Personal Weather Station
Location: Tyler, TX
Elevation: 623 ft
Nearby Weather Stations

Elev 623 ft 32.32 °N, 95.27 °W | Updated 34 seconds ago

Partly Cloudy
Partly Cloudy
68.0 °F
Feels Like 68.0 °F
N
0.0
Wind Variable Wind from South
Gusts 4.0 mph

Today
High -- | Low -- °F
--% Chance of Precip.
Yesterday
High -- | Low -- °F
Precip. -- in
6:30 AM 8:05 PM
Waning Gibbous, 95% visible
Pressure 29.97 in
Visibility 10.0 miles
Clouds Few 10000 ft
Dew Point 66 °F
Humidity 93%
Rainfall 0.00 in
Snow Depth Not available.
UV 0 out of 12
Pollen 8.10 out of 12
Air Quality Not available.
Flu Activity Sporadic
METAR KTYR 060753Z AUTO 14012KT 10SM FEW100 21/18 A2999 RMK AO2 SLP147 T02060178

More Conditions Fewer Conditions

Pressure 29.97 in
Visibility 10.0 miles
Clouds Few 10000 ft
Dew Point 66 °F
Humidity 93%
Rainfall 0.00 in
Snow Depth Not available.
UV 0 out of 12
Pollen 8.10 out of 12
Air Quality Not available.
Flu Activity Sporadic
METAR KTYR 060753Z AUTO 14012KT 10SM FEW100 21/18 A2999 RMK AO2 SLP147 T02060178

More Conditions Fewer Conditions

10-Day Weather Forecast

Almanac

Astronomy

May. 06, 2015 Rise Set
Actual Time
Civil Twilight
Nautical Twilight
Astronomical Twilight
Moon
Length of Visible Light
Length of Day
Tomorrow will be .
, % of the Moon is Illuminated

Today's Extremes

State Highs State Lows

Community

WunderPhotos

Upload Photos

1,818,853 photos uploaded!

WunderBlogs® & News

Nearby

Air Quality

  Air Quality AQ Index Pollutant
Not available.

Snow Depth

Station Depth Elevation

Earthquake Activity

City Distance Mag. Time & Date
Minimum magnitude displayed is 2.5.

Coastal Water Temperatures

Place Temperature

Stations

Nearby Weather Stations

Station Location Temp. Windchill Dew Point Humidity Wind Precip. Elev Updated Type